< < Back
Terminal Aerodrome Forecast


Current Version              Previous Versions:   1  2  3  4  5  6  7  8  9  

Terminal Aerodrome Forecast

031
FTUS42 KGSP 232320
TAFAVL
TAF
KAVL 232320Z 2400/2424 12004KT P6SM FEW040
     FM240600 00000KT P6SM SCT020 BKN035
     FM240900 00000KT P6SM SCT019 BKN025
      TEMPO 2409/2412 1SM BR SCT009 OVC019
     FM241400 16003KT P6SM BKN035=

Latest METAR

488
SAUS70 KWBC 240200 RRH
MTRAVL
METAR KAVL 240154Z 00000KT 10SM CLR 21/18 A3035 RMK AO2 SLP252
T02110178


USA.gov is the U.S. government's official web portal to all federal, state and local government web resources and services.